sensor_id;sensor_type;location;lat;lon;timestamp;pressure;altitude;pressure_sealevel;temperature;humidity
4767;BME280;2397;53.576;9.746;2022-09-11T00:01:08;101515.19;;;14.11;100.00
4767;BME280;2397;53.576;9.746;2022-09-11T00:03:35;101517.19;;;14.38;100.00
4767;BME280;2397;53.576;9.746;2022-09-11T00:06:06;101513.72;;;14.38;100.00
4767;BME280;2397;53.576;9.746;2022-09-11T00:08:33;101517.16;;;14.35;100.00
4767;BME280;2397;53.576;9.746;2022-09-11T00:13:35;101522.22;;;14.20;100.00
4767;BME280;2397;53.576;9.746;2022-09-11T00:16:03;101524.81;;;14.20;100.00
4767;BME280;2397;53.576;9.746;2022-09-11T00:18:30;101522.03;;;14.04;100.00
4767;BME280;2397;53.576;9.746;2022-09-11T00:21:02;101527.53;;;14.32;100.00
4767;BME280;2397;53.576;9.746;2022-09-11T00:23:29;101517.25;;;14.45;100.00
4767;BME280;2397;53.576;9.746;2022-09-11T00:26:00;101520.53;;;14.25;100.00
4767;BME280;2397;53.576;9.746;2022-09-11T00:28:27;101511.84;;;14.25;100.00
4767;BME280;2397;53.576;9.746;2022-09-11T00:31:09;101517.94;;;14.28;100.00
4767;BME280;2397;53.576;9.746;2022-09-11T00:33:38;101517.34;;;14.54;100.00
4767;BME280;2397;53.576;9.746;2022-09-11T00:36:08;101517.63;;;14.82;100.00
4767;BME280;2397;53.576;9.746;2022-09-11T00:38:36;101526.41;;;14.93;100.00
4767;BME280;2397;53.576;9.746;2022-09-11T00:41:05;101521.00;;;14.71;100.00
4767;BME280;2397;53.576;9.746;2022-09-11T00:43:53;101529.81;;;14.87;100.00
4767;BME280;2397;53.576;9.746;2022-09-11T00:46:23;101529.03;;;14.96;100.00
4767;BME280;2397;53.576;9.746;2022-09-11T00:48:51;101529.97;;;15.04;100.00
4767;BME280;2397;53.576;9.746;2022-09-11T00:51:22;101538.44;;;14.80;100.00
4767;BME280;2397;53.576;9.746;2022-09-11T00:53:51;101534.22;;;14.95;100.00
4767;BME280;2397;53.576;9.746;2022-09-11T00:56:20;101530.84;;;15.03;100.00
4767;BME280;2397;53.576;9.746;2022-09-11T00:58:48;101533.25;;;14.82;100.00
4767;BME280;2397;53.576;9.746;2022-09-11T01:01:16;101535.09;;;14.93;100.00
4767;BME280;2397;53.576;9.746;2022-09-11T01:03:42;101535.19;;;15.04;100.00
4767;BME280;2397;53.576;9.746;2022-09-11T01:06:09;101537.69;;;14.92;100.00
4767;BME280;2397;53.576;9.746;2022-09-11T01:08:36;101537.66;;;14.90;100.00
4767;BME280;2397;53.576;9.746;2022-09-11T01:11:38;101537.69;;;14.95;100.00
4767;BME280;2397;53.576;9.746;2022-09-11T01:16:57;101542.06;;;14.95;100.00
4767;BME280;2397;53.576;9.746;2022-09-11T01:19:45;101546.28;;;14.83;100.00
4767;BME280;2397;53.576;9.746;2022-09-11T01:25:24;101535.78;;;14.72;100.00
4767;BME280;2397;53.576;9.746;2022-09-11T01:27:56;101532.84;;;14.41;100.00
4767;BME280;2397;53.576;9.746;2022-09-11T01:30:30;101535.66;;;14.60;100.00
4767;BME280;2397;53.576;9.746;2022-09-11T01:33:15;101544.97;;;14.36;100.00
4767;BME280;2397;53.576;9.746;2022-09-11T01:36:06;101543.94;;;14.23;100.00
4767;BME280;2397;53.576;9.746;2022-09-11T01:38:51;101546.38;;;14.07;100.00
4767;BME280;2397;53.576;9.746;2022-09-11T01:41:23;101542.03;;;14.07;100.00
4767;BME280;2397;53.576;9.746;2022-09-11T01:44:02;101550.59;;;13.98;100.00
4767;BME280;2397;53.576;9.746;2022-09-11T01:46:34;101547.88;;;13.89;100.00
4767;BME280;2397;53.576;9.746;2022-09-11T01:49:16;101543.72;;;14.02;100.00
4767;BME280;2397;53.576;9.746;2022-09-11T01:51:45;101554.22;;;14.10;100.00
4767;BME280;2397;53.576;9.746;2022-09-11T01:54:15;101554.38;;;14.27;100.00
4767;BME280;2397;53.576;9.746;2022-09-11T01:56:50;101547.50;;;14.29;100.00
4767;BME280;2397;53.576;9.746;2022-09-11T01:59:22;101547.50;;;14.30;100.00
4767;BME280;2397;53.576;9.746;2022-09-11T02:02:01;101558.72;;;14.23;100.00
4767;BME280;2397;53.576;9.746;2022-09-11T02:04:32;101555.13;;;14.15;100.00
4767;BME280;2397;53.576;9.746;2022-09-11T02:07:07;101559.44;;;14.11;100.00
4767;BME280;2397;53.576;9.746;2022-09-11T02:09:42;101552.50;;;14.12;100.00
4767;BME280;2397;53.576;9.746;2022-09-11T02:12:12;101557.31;;;14.57;100.00
4767;BME280;2397;53.576;9.746;2022-09-11T02:14:42;101555.44;;;14.43;100.00
4767;BME280;2397;53.576;9.746;2022-09-11T02:17:26;101562.53;;;14.56;100.00
4767;BME280;2397;53.576;9.746;2022-09-11T02:19:58;101559.09;;;14.60;100.00
4767;BME280;2397;53.576;9.746;2022-09-11T02:22:25;101567.03;;;14.71;100.00
4767;BME280;2397;53.576;9.746;2022-09-11T02:24:52;101566.47;;;14.20;100.00
4767;BME280;2397;53.576;9.746;2022-09-11T02:27:22;101563.91;;;14.21;100.00
4767;BME280;2397;53.576;9.746;2022-09-11T02:29:49;101561.63;;;14.52;100.00
4767;BME280;2397;53.576;9.746;2022-09-11T02:32:19;101563.19;;;14.36;100.00
4767;BME280;2397;53.576;9.746;2022-09-11T02:34:46;101571.75;;;14.25;100.00
4767;BME280;2397;53.576;9.746;2022-09-11T02:43:30;101584.28;;;13.86;100.00
4767;BME280;2397;53.576;9.746;2022-09-11T02:48:55;101588.91;;;14.10;100.00
4767;BME280;2397;53.576;9.746;2022-09-11T02:51:48;101590.09;;;14.35;100.00
4767;BME280;2397;53.576;9.746;2022-09-11T02:57:22;101588.78;;;13.99;100.00
4767;BME280;2397;53.576;9.746;2022-09-11T02:59:54;101587.84;;;13.94;100.00
4767;BME280;2397;53.576;9.746;2022-09-11T03:02:22;101594.66;;;13.83;100.00
4767;BME280;2397;53.576;9.746;2022-09-11T03:04:49;101581.63;;;13.81;100.00
4767;BME280;2397;53.576;9.746;2022-09-11T03:07:16;101584.31;;;13.89;100.00
4767;BME280;2397;53.576;9.746;2022-09-11T03:09:42;101587.00;;;13.97;100.00
4767;BME280;2397;53.576;9.746;2022-09-11T03:12:09;101590.75;;;14.17;100.00
4767;BME280;2397;53.576;9.746;2022-09-11T03:14:35;101590.63;;;14.08;100.00
4767;BME280;2397;53.576;9.746;2022-09-11T03:17:03;101583.25;;;14.45;100.00
4767;BME280;2397;53.576;9.746;2022-09-11T03:19:30;101586.41;;;14.18;100.00
4767;BME280;2397;53.576;9.746;2022-09-11T03:21:57;101586.41;;;14.18;100.00
4767;BME280;2397;53.576;9.746;2022-09-11T03:24:23;101595.88;;;14.11;100.00
4767;BME280;2397;53.576;9.746;2022-09-11T03:26:51;101597.03;;;14.33;100.00
4767;BME280;2397;53.576;9.746;2022-09-11T03:29:17;101588.47;;;14.47;100.00
4767;BME280;2397;53.576;9.746;2022-09-11T03:31:44;101593.09;;;14.71;100.00
4767;BME280;2397;53.576;9.746;2022-09-11T03:34:11;101594.13;;;14.85;100.00
4767;BME280;2397;53.576;9.746;2022-09-11T03:36:37;101601.94;;;14.85;100.00
4767;BME280;2397;53.576;9.746;2022-09-11T03:39:04;101599.88;;;14.58;100.00
4767;BME280;2397;53.576;9.746;2022-09-11T03:41:30;101603.50;;;14.68;100.00
4767;BME280;2397;53.576;9.746;2022-09-11T03:43:58;101597.41;;;14.67;100.00
4767;BME280;2397;53.576;9.746;2022-09-11T03:46:24;101593.91;;;14.65;100.00
4767;BME280;2397;53.576;9.746;2022-09-11T03:48:50;101597.06;;;14.36;100.00
4767;BME280;2397;53.576;9.746;2022-09-11T03:51:18;101604.19;;;14.53;100.00
4767;BME280;2397;53.576;9.746;2022-09-11T03:53:45;101600.72;;;14.54;100.00
4767;BME280;2397;53.576;9.746;2022-09-11T03:56:11;101607.19;;;14.15;100.00
4767;BME280;2397;53.576;9.746;2022-09-11T03:58:40;101601.03;;;14.07;100.00
4767;BME280;2397;53.576;9.746;2022-09-11T04:01:08;101590.31;;;13.83;100.00
4767;BME280;2397;53.576;9.746;2022-09-11T04:03:36;101599.84;;;13.83;100.00
4767;BME280;2397;53.576;9.746;2022-09-11T04:06:02;101598.75;;;13.67;100.00
4767;BME280;2397;53.576;9.746;2022-09-11T04:08:29;101595.47;;;13.80;100.00
4767;BME280;2397;53.576;9.746;2022-09-11T04:11:01;101593.88;;;13.90;100.00
4767;BME280;2397;53.576;9.746;2022-09-11T04:13:29;101602.41;;;13.78;100.00
4767;BME280;2397;53.576;9.746;2022-09-11T04:16:00;101610.38;;;13.92;100.00
4767;BME280;2397;53.576;9.746;2022-09-11T04:18:30;101606.91;;;13.90;100.00
4767;BME280;2397;53.576;9.746;2022-09-11T04:20:57;101605.38;;;14.08;100.00
4767;BME280;2397;53.576;9.746;2022-09-11T04:23:23;101614.84;;;14.01;100.00
4767;BME280;2397;53.576;9.746;2022-09-11T04:25:50;101619.66;;;14.37;100.00
4767;BME280;2397;53.576;9.746;2022-09-11T04:28:17;101625.63;;;14.29;100.00
4767;BME280;2397;53.576;9.746;2022-09-11T04:30:44;101628.13;;;14.24;100.00
4767;BME280;2397;53.576;9.746;2022-09-11T04:33:10;101631.50;;;14.14;100.00
4767;BME280;2397;53.576;9.746;2022-09-11T04:35:38;101640.41;;;14.34;100.00
4767;BME280;2397;53.576;9.746;2022-09-11T04:38:06;101629.03;;;14.25;100.00
4767;BME280;2397;53.576;9.746;2022-09-11T04:40:33;101636.91;;;14.31;100.00
4767;BME280;2397;53.576;9.746;2022-09-11T04:43:01;101630.28;;;14.57;100.00
4767;BME280;2397;53.576;9.746;2022-09-11T04:45:28;101627.75;;;14.62;100.00
4767;BME280;2397;53.576;9.746;2022-09-11T04:47:59;101631.34;;;14.72;100.00
4767;BME280;2397;53.576;9.746;2022-09-11T04:50:26;101632.22;;;14.75;100.00
4767;BME280;2397;53.576;9.746;2022-09-11T04:52:57;101644.41;;;14.77;100.00
4767;BME280;2397;53.576;9.746;2022-09-11T04:55:24;101650.50;;;14.79;100.00
4767;BME280;2397;53.576;9.746;2022-09-11T04:57:51;101648.59;;;14.62;100.00
4767;BME280;2397;53.576;9.746;2022-09-11T05:00:19;101654.00;;;14.78;100.00
4767;BME280;2397;53.576;9.746;2022-09-11T05:02:45;101647.66;;;14.57;100.00
4767;BME280;2397;53.576;9.746;2022-09-11T05:05:13;101655.66;;;14.72;100.00
4767;BME280;2397;53.576;9.746;2022-09-11T05:07:39;101660.06;;;14.78;100.00
4767;BME280;2397;53.576;9.746;2022-09-11T05:10:05;101657.59;;;14.90;100.00
4767;BME280;2397;53.576;9.746;2022-09-11T05:12:33;101667.09;;;14.84;100.00
4767;BME280;2397;53.576;9.746;2022-09-11T05:14:59;101670.44;;;14.73;100.00
4767;BME280;2397;53.576;9.746;2022-09-11T05:17:26;101668.72;;;14.75;100.00
4767;BME280;2397;53.576;9.746;2022-09-11T05:19:52;101673.84;;;14.68;100.00
4767;BME280;2397;53.576;9.746;2022-09-11T05:22:19;101676.06;;;14.38;100.00
4767;BME280;2397;53.576;9.746;2022-09-11T05:24:45;101678.84;;;14.51;100.00
4767;BME280;2397;53.576;9.746;2022-09-11T05:27:12;101677.75;;;14.33;100.00
4767;BME280;2397;53.576;9.746;2022-09-11T05:29:39;101683.81;;;14.32;100.00
4767;BME280;2397;53.576;9.746;2022-09-11T05:32:05;101683.84;;;14.35;100.00
4767;BME280;2397;53.576;9.746;2022-09-11T05:34:32;101679.63;;;14.44;100.00
4767;BME280;2397;53.576;9.746;2022-09-11T05:36:58;101680.47;;;14.43;100.00
4767;BME280;2397;53.576;9.746;2022-09-11T05:39:24;101693.56;;;14.47;100.00
4767;BME280;2397;53.576;9.746;2022-09-11T05:41:52;101691.91;;;14.54;100.00
4767;BME280;2397;53.576;9.746;2022-09-11T05:44:19;101695.06;;;14.30;100.00
4767;BME280;2397;53.576;9.746;2022-09-11T05:46:45;101702.03;;;14.32;100.00
4767;BME280;2397;53.576;9.746;2022-09-11T05:49:13;101691.69;;;14.37;100.00
4767;BME280;2397;53.576;9.746;2022-09-11T05:51:41;101692.78;;;14.56;100.00
4767;BME280;2397;53.576;9.746;2022-09-11T05:54:07;101700.31;;;14.34;100.00
4767;BME280;2397;53.576;9.746;2022-09-11T05:56:33;101690.25;;;14.61;100.00
4767;BME280;2397;53.576;9.746;2022-09-11T05:59:00;101692.78;;;14.56;100.00
4767;BME280;2397;53.576;9.746;2022-09-11T06:01:28;101693.00;;;14.71;100.00
4767;BME280;2397;53.576;9.746;2022-09-11T06:03:55;101703.44;;;14.73;100.00
4767;BME280;2397;53.576;9.746;2022-09-11T06:06:22;101707.88;;;14.82;100.00
4767;BME280;2397;53.576;9.746;2022-09-11T06:08:49;101707.75;;;14.69;100.00
4767;BME280;2397;53.576;9.746;2022-09-11T06:11:18;101713.84;;;14.71;100.00
4767;BME280;2397;53.576;9.746;2022-09-11T06:13:46;101713.03;;;14.75;100.00
4767;BME280;2397;53.576;9.746;2022-09-11T06:16:21;101719.06;;;14.73;100.00
4767;BME280;2397;53.576;9.746;2022-09-11T06:18:49;101729.03;;;14.37;100.00
4767;BME280;2397;53.576;9.746;2022-09-11T06:21:18;101724.78;;;14.46;100.00
4767;BME280;2397;53.576;9.746;2022-09-11T06:23:47;101736.16;;;14.51;100.00
4767;BME280;2397;53.576;9.746;2022-09-11T06:26:15;101737.00;;;14.50;100.00
4767;BME280;2397;53.576;9.746;2022-09-11T06:28:42;101731.03;;;14.57;100.00
4767;BME280;2397;53.576;9.746;2022-09-11T06:31:11;101739.72;;;14.59;100.00
4767;BME280;2397;53.576;9.746;2022-09-11T06:33:39;101735.38;;;14.58;100.00
4767;BME280;2397;53.576;9.746;2022-09-11T06:36:11;101743.09;;;14.52;100.00
4767;BME280;2397;53.576;9.746;2022-09-11T06:38:38;101744.88;;;14.53;100.00
4767;BME280;2397;53.576;9.746;2022-09-11T06:41:07;101746.63;;;14.54;100.00
4767;BME280;2397;53.576;9.746;2022-09-11T06:43:37;101747.38;;;14.45;100.00
4767;BME280;2397;53.576;9.746;2022-09-11T06:46:05;101738.69;;;14.48;100.00
4767;BME280;2397;53.576;9.746;2022-09-11T06:48:32;101748.06;;;14.33;100.00
4767;BME280;2397;53.576;9.746;2022-09-11T06:51:03;101743.84;;;14.41;100.00
4767;BME280;2397;53.576;9.746;2022-09-11T06:53:30;101739.78;;;14.62;100.00
4767;BME280;2397;53.576;9.746;2022-09-11T06:56:04;101745.91;;;14.64;100.00
4767;BME280;2397;53.576;9.746;2022-09-11T06:58:32;101736.09;;;14.48;100.00
4767;BME280;2397;53.576;9.746;2022-09-11T07:01:02;101742.47;;;14.67;100.00
4767;BME280;2397;53.576;9.746;2022-09-11T07:03:30;101737.38;;;14.76;100.00
4767;BME280;2397;53.576;9.746;2022-09-11T07:05:56;101744.03;;;14.55;100.00
4767;BME280;2397;53.576;9.746;2022-09-11T07:08:24;101747.69;;;14.68;100.00
4767;BME280;2397;53.576;9.746;2022-09-11T07:10:51;101749.50;;;14.74;100.00
4767;BME280;2397;53.576;9.746;2022-09-11T07:13:17;101744.38;;;14.82;100.00
4767;BME280;2397;53.576;9.746;2022-09-11T07:15:44;101742.50;;;14.71;100.00
4767;BME280;2397;53.576;9.746;2022-09-11T07:18:13;101753.53;;;14.53;100.00
4767;BME280;2397;53.576;9.746;2022-09-11T07:20:39;101751.16;;;14.66;100.00
4767;BME280;2397;53.576;9.746;2022-09-11T07:23:07;101764.16;;;14.64;100.00
4767;BME280;2397;53.576;9.746;2022-09-11T07:25:35;101759.72;;;14.60;100.00
4767;BME280;2397;53.576;9.746;2022-09-11T07:28:05;101756.56;;;14.83;100.00
4767;BME280;2397;53.576;9.746;2022-09-11T07:30:32;101766.19;;;14.87;100.00
4767;BME280;2397;53.576;9.746;2022-09-11T07:32:58;101769.38;;;14.64;100.00
4767;BME280;2397;53.576;9.746;2022-09-11T07:35:24;101760.88;;;14.79;100.00
4767;BME280;2397;53.576;9.746;2022-09-11T07:37:51;101759.09;;;14.77;100.00
4767;BME280;2397;53.576;9.746;2022-09-11T07:40:18;101765.09;;;14.71;100.00
4767;BME280;2397;53.576;9.746;2022-09-11T07:42:44;101765.25;;;14.83;100.00
4767;BME280;2397;53.576;9.746;2022-09-11T07:45:10;101770.63;;;14.96;100.00
4767;BME280;2397;53.576;9.746;2022-09-11T07:47:37;101779.16;;;14.84;100.00
4767;BME280;2397;53.576;9.746;2022-09-11T07:50:04;101769.66;;;14.89;100.00
4767;BME280;2397;53.576;9.746;2022-09-11T07:52:31;101777.50;;;14.90;100.00
4767;BME280;2397;53.576;9.746;2022-09-11T07:54:57;101784.59;;;15.02;100.00
4767;BME280;2397;53.576;9.746;2022-09-11T07:57:23;101778.47;;;14.97;100.00
4767;BME280;2397;53.576;9.746;2022-09-11T07:59:50;101788.13;;;15.06;100.00
4767;BME280;2397;53.576;9.746;2022-09-11T08:02:17;101778.59;;;15.09;100.00
4767;BME280;2397;53.576;9.746;2022-09-11T08:04:43;101780.28;;;15.03;100.00
4767;BME280;2397;53.576;9.746;2022-09-11T08:07:10;101783.81;;;15.09;100.00
4767;BME280;2397;53.576;9.746;2022-09-11T08:09:36;101781.06;;;14.97;100.00
4767;BME280;2397;53.576;9.746;2022-09-11T08:12:03;101783.91;;;15.19;100.00
4767;BME280;2397;53.576;9.746;2022-09-11T08:14:30;101786.63;;;15.28;100.00
4767;BME280;2397;53.576;9.746;2022-09-11T08:16:57;101794.47;;;15.28;100.00
4767;BME280;2397;53.576;9.746;2022-09-11T08:19:23;101793.78;;;15.48;100.00
4767;BME280;2397;53.576;9.746;2022-09-11T08:21:50;101794.91;;;15.73;100.00
4767;BME280;2397;53.576;9.746;2022-09-11T08:24:18;101800.13;;;15.76;100.00
4767;BME280;2397;53.576;9.746;2022-09-11T08:26:45;101795.78;;;15.76;100.00
4767;BME280;2397;53.576;9.746;2022-09-11T08:29:14;101802.91;;;15.90;100.00
4767;BME280;2397;53.576;9.746;2022-09-11T08:31:41;101808.94;;;15.83;100.00
4767;BME280;2397;53.576;9.746;2022-09-11T08:34:08;101801.06;;;15.78;100.00
4767;BME280;2397;53.576;9.746;2022-09-11T08:36:35;101804.34;;;15.61;100.00
4767;BME280;2397;53.576;9.746;2022-09-11T08:39:01;101814.16;;;15.83;100.00
4767;BME280;2397;53.576;9.746;2022-09-11T08:41:40;101813.09;;;15.65;100.00
4767;BME280;2397;53.576;9.746;2022-09-11T08:46:56;101815.91;;;15.87;100.00
4767;BME280;2397;53.576;9.746;2022-09-11T08:49:34;101822.03;;;15.86;100.00
4767;BME280;2397;53.576;9.746;2022-09-11T08:52:02;101816.91;;;15.98;100.00
4767;BME280;2397;53.576;9.746;2022-09-11T08:54:33;101821.19;;;15.91;100.00
4767;BME280;2397;53.576;9.746;2022-09-11T08:57:16;101821.28;;;16.01;100.00
4767;BME280;2397;53.576;9.746;2022-09-11T09:00:10;101822.22;;;16.13;100.00
4767;BME280;2397;53.576;9.746;2022-09-11T09:03:02;101818.78;;;16.16;100.00
4767;BME280;2397;53.576;9.746;2022-09-11T09:05:49;101816.19;;;16.18;100.00
4767;BME280;2397;53.576;9.746;2022-09-11T09:11:34;101824.91;;;16.20;100.00
4767;BME280;2397;53.576;9.746;2022-09-11T09:14:18;101821.53;;;16.36;100.00
4767;BME280;2397;53.576;9.746;2022-09-11T09:19:39;101816.59;;;16.84;100.00
4767;BME280;2397;53.576;9.746;2022-09-11T09:22:22;101815.50;;;16.43;100.00
4767;BME280;2397;53.576;9.746;2022-09-11T09:24:54;101819.81;;;16.38;100.00
4767;BME280;2397;53.576;9.746;2022-09-11T09:27:32;101826.84;;;16.48;100.00
4767;BME280;2397;53.576;9.746;2022-09-11T09:30:03;101826.81;;;16.44;100.00
4767;BME280;2397;53.576;9.746;2022-09-11T09:32:35;101826.59;;;16.13;100.00
4767;BME280;2397;53.576;9.746;2022-09-11T09:35:12;101824.81;;;16.10;100.00
4767;BME280;2397;53.576;9.746;2022-09-11T09:37:42;101813.53;;;16.14;100.00
4767;BME280;2397;53.576;9.746;2022-09-11T09:40:09;101815.25;;;16.09;100.00
4767;BME280;2397;53.576;9.746;2022-09-11T09:42:45;101824.06;;;16.27;100.00
4767;BME280;2397;53.576;9.746;2022-09-11T09:45:30;101816.19;;;16.21;100.00
4767;BME280;2397;53.576;9.746;2022-09-11T09:47:58;101823.41;;;16.59;100.00
4767;BME280;2397;53.576;9.746;2022-09-11T09:50:35;101816.50;;;16.67;100.00
4767;BME280;2397;53.576;9.746;2022-09-11T09:53:15;101820.88;;;16.73;100.00
4767;BME280;2397;53.576;9.746;2022-09-11T09:55:43;101821.78;;;16.79;100.00
4767;BME280;2397;53.576;9.746;2022-09-11T09:58:10;101822.56;;;16.61;100.00
4767;BME280;2397;53.576;9.746;2022-09-11T10:00:38;101824.44;;;16.84;100.00
4767;BME280;2397;53.576;9.746;2022-09-11T10:03:22;101812.38;;;17.15;100.00
4767;BME280;2397;53.576;9.746;2022-09-11T10:05:53;101816.75;;;17.26;97.59
4767;BME280;2397;53.576;9.746;2022-09-11T10:08:33;101829.00;;;17.25;98.69
4767;BME280;2397;53.576;9.746;2022-09-11T10:11:05;101826.34;;;17.14;100.00
4767;BME280;2397;53.576;9.746;2022-09-11T10:13:36;101828.91;;;17.03;100.00
4767;BME280;2397;53.576;9.746;2022-09-11T10:16:17;101821.06;;;17.07;100.00
4767;BME280;2397;53.576;9.746;2022-09-11T10:18:45;101823.63;;;16.93;99.91
4767;BME280;2397;53.576;9.746;2022-09-11T10:26:15;101811.50;;;17.10;100.00
4767;BME280;2397;53.576;9.746;2022-09-11T10:28:44;101812.34;;;17.05;100.00
4767;BME280;2397;53.576;9.746;2022-09-11T10:31:15;101817.66;;;17.31;100.00
4767;BME280;2397;53.576;9.746;2022-09-11T10:33:51;101822.94;;;17.49;100.00
4767;BME280;2397;53.576;9.746;2022-09-11T10:36:22;101815.97;;;17.51;100.00
4767;BME280;2397;53.576;9.746;2022-09-11T10:38:49;101821.22;;;17.54;96.63
4767;BME280;2397;53.576;9.746;2022-09-11T10:41:23;101812.50;;;17.71;93.12
4767;BME280;2397;53.576;9.746;2022-09-11T10:44:12;101817.78;;;18.03;91.11
4767;BME280;2397;53.576;9.746;2022-09-11T10:46:41;101813.41;;;18.13;87.63
4767;BME280;2397;53.576;9.746;2022-09-11T10:49:19;101816.00;;;17.73;90.62
4767;BME280;2397;53.576;9.746;2022-09-11T10:52:14;101815.13;;;17.85;92.57
4767;BME280;2397;53.576;9.746;2022-09-11T10:54:53;101819.50;;;17.80;92.73
4767;BME280;2397;53.576;9.746;2022-09-11T11:00:02;101814.28;;;17.92;94.82
4767;BME280;2397;53.576;9.746;2022-09-11T11:02:49;101815.94;;;17.41;97.49
4767;BME280;2397;53.576;9.746;2022-09-11T11:05:29;101823.84;;;17.64;95.67
4767;BME280;2397;53.576;9.746;2022-09-11T11:08:13;101825.59;;;17.65;96.88
4767;BME280;2397;53.576;9.746;2022-09-11T11:16:16;101823.03;;;17.97;97.39
4767;BME280;2397;53.576;9.746;2022-09-11T11:19:13;101816.03;;;18.01;93.81
4767;BME280;2397;53.576;9.746;2022-09-11T11:30:20;101832.53;;;17.53;96.91
4767;BME280;2397;53.576;9.746;2022-09-11T11:33:09;101830.84;;;17.71;95.98
4767;BME280;2397;53.576;9.746;2022-09-11T11:38:53;101827.34;;;17.78;95.55
4767;BME280;2397;53.576;9.746;2022-09-11T11:41:32;101836.06;;;17.68;93.16
4767;BME280;2397;53.576;9.746;2022-09-11T11:44:02;101831.75;;;18.02;95.66
4767;BME280;2397;53.576;9.746;2022-09-11T11:46:35;101838.72;;;17.96;94.22
4767;BME280;2397;53.576;9.746;2022-09-11T11:49:09;101835.22;;;18.28;93.52
4767;BME280;2397;53.576;9.746;2022-09-11T11:51:45;101834.38;;;18.25;89.07
4767;BME280;2397;53.576;9.746;2022-09-11T11:54:38;101835.25;;;18.21;89.80
4767;BME280;2397;53.576;9.746;2022-09-11T11:57:10;101843.09;;;18.34;87.16
4767;BME280;2397;53.576;9.746;2022-09-11T11:59:46;101846.59;;;18.17;89.47
4767;BME280;2397;53.576;9.746;2022-09-11T12:02:21;101845.72;;;18.20;88.88
4767;BME280;2397;53.576;9.746;2022-09-11T12:05:12;101841.34;;;18.30;86.22
4767;BME280;2397;53.576;9.746;2022-09-11T12:07:42;101822.69;;;19.28;86.08
4767;BME280;2397;53.576;9.746;2022-09-11T12:13:14;101821.81;;;19.29;80.41
4767;BME280;2397;53.576;9.746;2022-09-11T12:16:08;101825.28;;;19.31;83.09
4767;BME280;2397;53.576;9.746;2022-09-11T12:18:37;101817.75;;;20.11;77.59
4767;BME280;2397;53.576;9.746;2022-09-11T12:26:20;101823.38;;;20.67;72.12
4767;BME280;2397;53.576;9.746;2022-09-11T12:28:48;101831.88;;;21.56;69.38
4767;BME280;2397;53.576;9.746;2022-09-11T12:31:16;101833.00;;;21.97;67.27
4767;BME280;2397;53.576;9.746;2022-09-11T12:38:59;101827.31;;;22.19;57.93
4767;BME280;2397;53.576;9.746;2022-09-11T12:41:32;101823.06;;;22.61;57.02
4767;BME280;2397;53.576;9.746;2022-09-11T12:44:01;101824.53;;;22.30;53.87
4767;BME280;2397;53.576;9.746;2022-09-11T12:51:52;101827.22;;;21.73;63.35
4767;BME280;2397;53.576;9.746;2022-09-11T12:54:26;101827.06;;;21.83;55.01
4767;BME280;2397;53.576;9.746;2022-09-11T12:57:03;101817.97;;;22.01;55.58
4767;BME280;2397;53.576;9.746;2022-09-11T12:59:40;101824.53;;;22.30;55.79
4767;BME280;2397;53.576;9.746;2022-09-11T13:02:32;101813.91;;;22.78;55.42
4767;BME280;2397;53.576;9.746;2022-09-11T13:05:02;101806.75;;;21.88;55.47
4767;BME280;2397;53.576;9.746;2022-09-11T13:07:36;101798.84;;;22.39;56.63
4767;BME280;2397;53.576;9.746;2022-09-11T13:10:19;101806.66;;;21.38;56.38
4767;BME280;2397;53.576;9.746;2022-09-11T13:12:52;101813.50;;;21.50;60.59
4767;BME280;2397;53.576;9.746;2022-09-11T13:15:37;101795.09;;;22.04;58.40
4767;BME280;2397;53.576;9.746;2022-09-11T13:18:26;101802.72;;;22.18;54.31
4767;BME280;2397;53.576;9.746;2022-09-11T13:20:56;101797.47;;;22.67;54.94
4767;BME280;2397;53.576;9.746;2022-09-11T13:23:24;101800.72;;;22.34;56.03
4767;BME280;2397;53.576;9.746;2022-09-11T13:25:54;101790.06;;;22.40;51.25
4767;BME280;2397;53.576;9.746;2022-09-11T13:28:21;101785.72;;;22.36;53.31
4767;BME280;2397;53.576;9.746;2022-09-11T13:30:58;101790.59;;;23.00;53.81
4767;BME280;2397;53.576;9.746;2022-09-11T13:33:28;101785.34;;;22.98;52.33
4767;BME280;2397;53.576;9.746;2022-09-11T13:35:58;101781.97;;;22.92;51.56
4767;BME280;2397;53.576;9.746;2022-09-11T13:38:32;101786.69;;;22.32;54.70
4767;BME280;2397;53.576;9.746;2022-09-11T13:41:02;101781.94;;;22.93;51.59
4767;BME280;2397;53.576;9.746;2022-09-11T13:43:43;101785.66;;;22.39;55.60
4767;BME280;2397;53.576;9.746;2022-09-11T13:48:48;101784.16;;;22.71;52.83
4767;BME280;2397;53.576;9.746;2022-09-11T13:51:18;101789.59;;;22.62;54.17
4767;BME280;2397;53.576;9.746;2022-09-11T13:53:51;101782.13;;;23.26;54.68
4767;BME280;2397;53.576;9.746;2022-09-11T13:56:37;101787.16;;;22.06;58.07
4767;BME280;2397;53.576;9.746;2022-09-11T14:01:58;101779.84;;;23.83;49.53
4767;BME280;2397;53.576;9.746;2022-09-11T14:04:28;101777.03;;;23.55;50.92
4767;BME280;2397;53.576;9.746;2022-09-11T14:06:54;101778.94;;;23.09;49.42
4767;BME280;2397;53.576;9.746;2022-09-11T14:09:21;101782.81;;;23.71;49.47
4767;BME280;2397;53.576;9.746;2022-09-11T14:11:48;101775.09;;;23.63;46.70
4767;BME280;2397;53.576;9.746;2022-09-11T14:14:24;101777.50;;;23.36;47.89
4767;BME280;2397;53.576;9.746;2022-09-11T14:16:54;101779.66;;;23.56;50.83
4767;BME280;2397;53.576;9.746;2022-09-11T14:19:30;101769.78;;;23.99;47.97
4767;BME280;2397;53.576;9.746;2022-09-11T14:21:57;101783.13;;;22.78;48.87
4767;BME280;2397;53.576;9.746;2022-09-11T14:26:58;101765.53;;;23.93;46.05
4767;BME280;2397;53.576;9.746;2022-09-11T14:29:29;101769.38;;;23.80;47.09
4767;BME280;2397;53.576;9.746;2022-09-11T14:34:53;101765.09;;;23.74;48.76
4767;BME280;2397;53.576;9.746;2022-09-11T14:37:19;101768.72;;;23.34;47.80
4767;BME280;2397;53.576;9.746;2022-09-11T14:39:48;101766.13;;;23.32;46.03
4767;BME280;2397;53.576;9.746;2022-09-11T14:42:21;101765.09;;;23.74;47.00
4767;BME280;2397;53.576;9.746;2022-09-11T14:44:49;101764.88;;;23.82;47.76
4767;BME280;2397;53.576;9.746;2022-09-11T14:47:17;101770.75;;;23.60;49.35